createdAt,value
2023-01-29T00:01:16.290Z,48.79
2023-01-29T00:03:21.446Z,48.53
2023-01-29T00:05:28.177Z,48.68
2023-01-29T00:07:33.181Z,48.67
2023-01-29T00:09:37.873Z,48.86
2023-01-29T00:11:43.134Z,48.54
2023-01-29T00:13:47.888Z,48.42
2023-01-29T00:15:57.383Z,48.50
2023-01-29T00:18:04.639Z,48.66
2023-01-29T00:20:10.326Z,48.74
2023-01-29T00:22:15.137Z,48.66
2023-01-29T00:24:19.904Z,48.69
2023-01-29T00:26:24.564Z,48.52
2023-01-29T00:28:29.976Z,48.41
2023-01-29T00:30:34.618Z,48.61
2023-01-29T00:32:39.334Z,48.45
2023-01-29T00:34:46.716Z,48.30
2023-01-29T00:37:04.981Z,48.55
2023-01-29T00:39:11.059Z,48.50
2023-01-29T00:41:30.289Z,48.50
2023-01-29T00:43:47.395Z,48.38
2023-01-29T00:45:52.183Z,48.49
2023-01-29T00:47:57.061Z,48.42
2023-01-29T00:50:05.082Z,48.64
2023-01-29T00:52:27.746Z,48.48
2023-01-29T00:54:33.280Z,48.41
2023-01-29T00:56:39.590Z,48.65
2023-01-29T00:58:44.264Z,48.45
2023-01-29T01:00:49.023Z,48.43
2023-01-29T01:03:06.033Z,48.67
2023-01-29T01:05:18.248Z,48.38
2023-01-29T01:07:23.664Z,48.45
2023-01-29T01:09:40.915Z,48.64
2023-01-29T01:11:45.679Z,48.59
2023-01-29T01:13:51.307Z,48.55
2023-01-29T01:15:57.911Z,48.63
2023-01-29T01:18:04.635Z,48.34
2023-01-29T01:20:11.017Z,48.49
2023-01-29T01:22:18.614Z,48.55
2023-01-29T01:24:23.496Z,48.54
2023-01-29T01:26:28.922Z,48.28
2023-01-29T01:28:35.898Z,48.21
2023-01-29T01:30:40.569Z,48.28
2023-01-29T01:32:46.064Z,48.54
2023-01-29T01:34:50.677Z,48.42
2023-01-29T01:36:55.969Z,48.32
2023-01-29T01:39:03.763Z,48.44
2023-01-29T01:41:11.460Z,48.22
2023-01-29T01:43:16.406Z,48.31
2023-01-29T01:45:23.408Z,48.40
2023-01-29T01:47:32.865Z,48.50
2023-01-29T01:49:37.590Z,48.15
2023-01-29T01:51:46.391Z,48.50
2023-01-29T01:53:58.627Z,48.40
2023-01-29T01:56:10.511Z,48.10
2023-01-29T01:58:21.100Z,48.38
2023-01-29T02:00:28.903Z,48.17
2023-01-29T02:02:46.157Z,48.02
2023-01-29T02:05:04.775Z,47.74
2023-01-29T02:07:23.993Z,47.75
2023-01-29T02:09:36.339Z,47.25
2023-01-29T02:11:44.098Z,47.20
2023-01-29T02:13:53.724Z,47.14
2023-01-29T02:16:03.409Z,46.99
2023-01-29T02:18:08.335Z,47.15
2023-01-29T02:20:24.304Z,46.91
2023-01-29T02:22:56.511Z,47.29
2023-01-29T02:25:26.135Z,47.13
2023-01-29T02:27:39.166Z,47.32
2023-01-29T02:30:05.887Z,47.52
2023-01-29T02:32:23.214Z,47.46
2023-01-29T02:34:52.023Z,47.08
2023-01-29T02:37:05.425Z,47.31
2023-01-29T02:39:15.933Z,47.41
2023-01-29T02:41:29.400Z,47.27
2023-01-29T02:43:39.766Z,47.13
2023-01-29T02:45:53.520Z,47.10
2023-01-29T02:48:01.472Z,47.08
2023-01-29T02:50:16.255Z,46.96
2023-01-29T02:52:26.577Z,46.94
2023-01-29T02:54:37.765Z,46.95
2023-01-29T02:56:51.163Z,47.19
2023-01-29T02:59:00.352Z,47.41
2023-01-29T03:01:12.995Z,47.19
2023-01-29T03:03:23.407Z,47.43
2023-01-29T03:05:35.340Z,47.48
2023-01-29T03:07:45.080Z,47.20
2023-01-29T03:10:01.570Z,46.97
2023-01-29T03:12:20.069Z,46.65
2023-01-29T03:14:53.089Z,46.64
2023-01-29T03:17:01.593Z,46.55
2023-01-29T03:19:11.380Z,46.32
2023-01-29T03:21:33.572Z,46.32
2023-01-29T03:23:52.238Z,46.08
2023-01-29T03:26:14.742Z,46.38
2023-01-29T03:28:34.306Z,46.24
2023-01-29T03:30:56.407Z,46.41
2023-01-29T03:33:26.832Z,46.52
2023-01-29T03:35:36.582Z,46.45
2023-01-29T03:37:46.488Z,46.52
2023-01-29T03:39:51.754Z,46.65
2023-01-29T03:42:01.799Z,46.58
2023-01-29T03:44:17.504Z,46.52
2023-01-29T03:46:31.512Z,46.27
2023-01-29T03:48:44.465Z,46.36
2023-01-29T03:50:59.082Z,46.37
2023-01-29T03:53:11.041Z,46.29
2023-01-29T03:55:20.329Z,46.45
2023-01-29T03:57:34.580Z,46.41
2023-01-29T03:59:45.394Z,46.51
2023-01-29T04:02:16.104Z,46.46
2023-01-29T04:04:29.558Z,46.45
2023-01-29T04:06:35.947Z,46.80
2023-01-29T04:08:57.814Z,46.44
2023-01-29T04:11:10.256Z,46.70
2023-01-29T04:13:17.822Z,46.73
2023-01-29T04:15:26.977Z,46.43
2023-01-29T04:17:38.400Z,46.51
2023-01-29T04:19:58.662Z,46.61
2023-01-29T04:22:10.033Z,46.35
2023-01-29T04:24:16.467Z,46.77
2023-01-29T04:26:56.908Z,46.27
2023-01-29T04:29:21.710Z,46.42
2023-01-29T04:31:35.535Z,46.41
2023-01-29T04:33:45.693Z,46.65
2023-01-29T04:36:06.183Z,46.32
2023-01-29T04:38:16.039Z,46.19
2023-01-29T04:40:26.723Z,46.37
2023-01-29T04:42:35.115Z,46.01
2023-01-29T04:44:45.142Z,45.93
2023-01-29T04:46:55.708Z,46.10
2023-01-29T04:49:10.669Z,46.11
2023-01-29T04:51:25.484Z,46.02
2023-01-29T04:53:38.329Z,46.03
2023-01-29T04:55:47.848Z,46.04
2023-01-29T04:57:58.711Z,45.97
2023-01-29T05:00:10.147Z,46.06
2023-01-29T05:02:15.948Z,46.00
2023-01-29T05:04:23.413Z,46.17
2023-01-29T05:06:33.578Z,46.16
2023-01-29T05:08:41.576Z,46.07
2023-01-29T05:10:47.161Z,45.95
2023-01-29T05:12:56.991Z,45.78
2023-01-29T05:15:05.359Z,45.91
2023-01-29T05:17:17.588Z,45.90
2023-01-29T05:19:22.226Z,45.99
2023-01-29T05:21:30.512Z,45.97
2023-01-29T05:23:35.350Z,45.93
2023-01-29T05:25:40.552Z,45.83
2023-01-29T05:27:57.764Z,45.79
2023-01-29T05:30:02.476Z,45.71
2023-01-29T05:32:07.154Z,45.72
2023-01-29T05:34:11.954Z,45.84
2023-01-29T05:36:16.733Z,45.47
2023-01-29T05:38:25.406Z,45.76
2023-01-29T05:40:30.031Z,45.42
2023-01-29T05:42:35.647Z,45.70
2023-01-29T05:44:40.347Z,45.35
2023-01-29T05:46:45.231Z,45.64
2023-01-29T05:48:49.998Z,45.66
2023-01-29T05:50:54.965Z,45.34
2023-01-29T05:53:00.427Z,45.44
2023-01-29T05:55:09.493Z,45.38
2023-01-29T05:57:14.154Z,45.34
2023-01-29T05:59:19.472Z,45.54
2023-01-29T06:01:26.499Z,45.50
2023-01-29T06:03:32.067Z,45.19
2023-01-29T06:05:36.797Z,45.46
2023-01-29T06:07:45.341Z,45.23
2023-01-29T06:09:50.170Z,45.37
2023-01-29T06:11:58.393Z,45.47
2023-01-29T06:14:03.024Z,45.50
2023-01-29T06:16:08.727Z,45.36
2023-01-29T06:18:13.431Z,45.33
2023-01-29T06:20:18.354Z,45.28
2023-01-29T06:22:23.157Z,44.98
2023-01-29T06:24:27.857Z,45.03
2023-01-29T06:26:32.518Z,45.01
2023-01-29T06:28:40.090Z,44.90
2023-01-29T06:30:44.812Z,44.92
2023-01-29T06:32:49.552Z,45.20
2023-01-29T06:34:54.215Z,45.09
2023-01-29T06:36:59.089Z,44.91
2023-01-29T06:39:04.032Z,45.10
2023-01-29T06:41:13.238Z,45.25
2023-01-29T06:43:17.896Z,45.21
2023-01-29T06:45:25.259Z,44.88
2023-01-29T06:47:31.129Z,44.89
2023-01-29T06:49:35.823Z,44.97
2023-01-29T06:51:40.582Z,44.76
2023-01-29T06:53:46.434Z,44.92
2023-01-29T06:55:55.011Z,44.64
2023-01-29T06:57:59.689Z,44.73
2023-01-29T07:00:04.322Z,44.50
2023-01-29T07:02:12.221Z,44.41
2023-01-29T07:04:16.943Z,44.33
2023-01-29T07:06:22.434Z,44.41
2023-01-29T07:08:27.726Z,44.32
2023-01-29T07:10:32.529Z,44.41
2023-01-29T07:12:37.230Z,44.75
2023-01-29T07:14:41.955Z,44.57
2023-01-29T07:16:46.628Z,44.84
2023-01-29T07:18:54.248Z,44.81
2023-01-29T07:20:59.150Z,44.88
2023-01-29T07:23:03.774Z,44.82
2023-01-29T07:25:10.208Z,44.98
2023-01-29T07:27:14.951Z,45.03
2023-01-29T07:29:19.733Z,44.79
2023-01-29T07:31:24.750Z,44.84
2023-01-29T07:33:29.557Z,44.87
2023-01-29T07:35:39.702Z,44.90
2023-01-29T07:37:44.312Z,45.20
2023-01-29T07:39:49.384Z,44.85
2023-01-29T07:41:54.058Z,44.86
2023-01-29T07:44:00.934Z,45.00
2023-01-29T07:46:06.162Z,44.81
2023-01-29T07:48:14.342Z,44.85
2023-01-29T07:50:19.518Z,44.92
2023-01-29T07:52:26.909Z,44.84
2023-01-29T07:54:31.564Z,44.99
2023-01-29T07:56:36.264Z,44.96
2023-01-29T07:58:41.035Z,44.85
2023-01-29T08:00:45.839Z,44.76
2023-01-29T08:02:50.500Z,44.84
2023-01-29T08:04:55.241Z,45.03
2023-01-29T08:07:00.077Z,44.74
2023-01-29T08:09:08.648Z,44.59
2023-01-29T08:11:13.341Z,45.03
2023-01-29T08:13:18.179Z,44.99
2023-01-29T08:15:22.916Z,44.81
2023-01-29T08:17:27.658Z,45.11
2023-01-29T08:19:32.350Z,44.81
2023-01-29T08:21:37.398Z,44.95
2023-01-29T08:23:42.036Z,44.84
2023-01-29T08:25:49.365Z,44.76
2023-01-29T08:27:54.363Z,45.09
2023-01-29T08:29:59.085Z,44.74
2023-01-29T08:32:03.842Z,45.19
2023-01-29T08:34:08.636Z,44.94
2023-01-29T08:36:13.725Z,44.86
2023-01-29T08:38:18.429Z,45.12
2023-01-29T08:40:23.067Z,45.17
2023-01-29T08:42:30.558Z,45.00
2023-01-29T08:44:35.386Z,44.81
2023-01-29T08:46:40.824Z,44.83
2023-01-29T08:48:45.474Z,44.73
2023-01-29T08:50:50.224Z,44.74
2023-01-29T08:52:54.954Z,44.57
2023-01-29T08:54:59.757Z,44.68
2023-01-29T08:57:04.430Z,44.87
2023-01-29T08:59:12.826Z,44.78
2023-01-29T09:01:17.809Z,44.54
2023-01-29T09:03:22.592Z,44.69
2023-01-29T09:05:27.230Z,44.65
2023-01-29T09:07:32.692Z,44.74
2023-01-29T09:09:38.416Z,44.79
2023-01-29T09:11:43.375Z,44.59
2023-01-29T09:13:47.977Z,44.69
2023-01-29T09:15:55.875Z,44.67
2023-01-29T09:18:05.401Z,44.45
2023-01-29T09:20:11.536Z,44.55
2023-01-29T09:22:16.326Z,44.68
2023-01-29T09:24:21.188Z,44.73
2023-01-29T09:26:25.846Z,44.66
2023-01-29T09:28:31.128Z,44.55
2023-01-29T09:30:37.900Z,44.84
2023-01-29T09:32:54.447Z,44.60
2023-01-29T09:34:59.597Z,44.60
2023-01-29T09:37:04.256Z,44.55
2023-01-29T09:39:08.934Z,44.64
2023-01-29T09:41:29.652Z,44.75
2023-01-29T09:43:45.721Z,44.58
2023-01-29T09:45:57.297Z,44.71
2023-01-29T09:48:08.432Z,44.49
2023-01-29T09:50:20.412Z,44.82
2023-01-29T09:52:28.415Z,44.62
2023-01-29T09:54:38.590Z,44.67
2023-01-29T09:56:45.008Z,44.67
2023-01-29T09:58:50.200Z,44.64
2023-01-29T10:01:02.852Z,44.49
2023-01-29T10:03:26.516Z,44.49
2023-01-29T10:05:48.733Z,44.20
2023-01-29T10:08:22.917Z,44.34
2023-01-29T10:10:40.714Z,44.23
2023-01-29T10:13:10.720Z,44.14
2023-01-29T10:15:31.126Z,44.42
2023-01-29T10:18:01.998Z,44.40
2023-01-29T10:20:28.782Z,44.38
2023-01-29T10:23:01.587Z,44.36
2023-01-29T10:25:08.504Z,44.14
2023-01-29T10:27:18.767Z,44.33
2023-01-29T10:29:24.794Z,44.48
2023-01-29T10:31:36.492Z,44.33
2023-01-29T10:33:54.231Z,44.12
2023-01-29T10:36:13.733Z,44.43
2023-01-29T10:38:31.147Z,44.26
2023-01-29T10:40:41.878Z,44.23
2023-01-29T10:42:52.831Z,44.19
2023-01-29T10:45:12.127Z,44.11
2023-01-29T10:47:40.596Z,44.11
2023-01-29T10:50:03.458Z,44.24
2023-01-29T10:52:32.142Z,44.19
2023-01-29T10:54:52.941Z,43.94
2023-01-29T10:57:09.710Z,44.08
2023-01-29T10:59:30.578Z,44.08
2023-01-29T11:01:35.402Z,43.78
2023-01-29T11:03:40.207Z,43.83
2023-01-29T11:05:48.066Z,44.01
2023-01-29T11:08:04.784Z,43.68
2023-01-29T11:10:14.654Z,43.55
2023-01-29T11:12:23.710Z,43.86
2023-01-29T11:14:32.881Z,43.93
2023-01-29T11:16:43.923Z,43.98
2023-01-29T11:18:58.443Z,43.86
2023-01-29T11:21:05.536Z,43.82
2023-01-29T11:23:28.226Z,43.66
2023-01-29T11:25:33.846Z,43.82
2023-01-29T11:27:45.584Z,43.43
2023-01-29T11:29:51.311Z,43.68
2023-01-29T11:31:56.711Z,43.71
2023-01-29T11:34:06.854Z,43.49
2023-01-29T11:36:25.058Z,43.44
2023-01-29T11:38:32.598Z,43.45
2023-01-29T11:40:42.744Z,43.60
2023-01-29T11:42:48.192Z,43.50
2023-01-29T11:44:52.910Z,43.22
2023-01-29T11:46:58.534Z,43.11
2023-01-29T11:49:19.147Z,43.18
2023-01-29T11:51:28.656Z,43.10
2023-01-29T11:53:43.187Z,43.31
2023-01-29T11:55:51.742Z,43.49
2023-01-29T11:58:01.042Z,43.34
2023-01-29T12:00:10.165Z,43.33
2023-01-29T12:02:26.956Z,43.18
2023-01-29T12:04:32.187Z,43.64
2023-01-29T12:06:39.392Z,43.47
2023-01-29T12:08:46.865Z,43.32
2023-01-29T12:10:51.910Z,43.17
2023-01-29T12:13:07.995Z,43.49
2023-01-29T12:15:25.386Z,43.27
2023-01-29T12:17:36.234Z,43.31
2023-01-29T12:19:45.600Z,43.37
2023-01-29T12:21:53.971Z,43.27
2023-01-29T12:24:06.796Z,43.35
2023-01-29T12:26:16.045Z,43.12
2023-01-29T12:28:33.525Z,43.02
2023-01-29T12:30:47.346Z,42.94
2023-01-29T12:33:00.324Z,43.01
2023-01-29T12:35:12.110Z,43.12
2023-01-29T12:37:24.002Z,42.81
2023-01-29T12:39:32.641Z,42.77
2023-01-29T12:41:45.978Z,42.98
2023-01-29T12:43:55.035Z,42.95
2023-01-29T12:46:02.640Z,43.14
2023-01-29T12:48:11.653Z,43.10
2023-01-29T12:50:22.879Z,42.89
2023-01-29T12:52:39.791Z,43.17
2023-01-29T12:54:54.208Z,43.07
2023-01-29T12:57:03.552Z,42.98
2023-01-29T12:59:17.887Z,42.74
2023-01-29T13:01:28.695Z,42.80
2023-01-29T13:03:42.305Z,42.84
2023-01-29T13:05:51.054Z,42.78
2023-01-29T13:08:01.398Z,42.98
2023-01-29T13:10:15.376Z,43.03
2023-01-29T13:12:23.380Z,43.23
2023-01-29T13:14:33.990Z,43.23
2023-01-29T13:16:43.490Z,43.13
2023-01-29T13:18:51.681Z,43.11
2023-01-29T13:20:57.148Z,43.17
2023-01-29T13:23:21.545Z,43.14
2023-01-29T13:25:29.035Z,43.00
2023-01-29T13:27:36.301Z,42.89
2023-01-29T13:29:41.077Z,42.83
2023-01-29T13:31:51.441Z,42.94
2023-01-29T13:33:58.793Z,42.89
2023-01-29T13:36:03.680Z,42.68
2023-01-29T13:38:09.714Z,42.77
2023-01-29T13:40:24.788Z,42.84
2023-01-29T13:42:41.466Z,42.78
2023-01-29T13:44:51.296Z,42.48
2023-01-29T13:47:01.527Z,42.65
2023-01-29T13:49:06.264Z,42.36
2023-01-29T13:51:17.866Z,42.23
2023-01-29T13:53:26.541Z,42.12
2023-01-29T13:55:34.402Z,42.19
2023-01-29T13:57:56.894Z,42.38
2023-01-29T14:00:01.732Z,42.32
2023-01-29T14:02:22.002Z,42.31
2023-01-29T14:04:31.067Z,42.13
2023-01-29T14:06:45.839Z,42.07
2023-01-29T14:08:50.939Z,42.28
2023-01-29T14:11:36.392Z,42.45
2023-01-29T14:13:45.133Z,42.16
2023-01-29T14:16:24.759Z,42.43
2023-01-29T14:18:30.435Z,42.48
2023-01-29T14:20:45.847Z,42.24
2023-01-29T14:22:59.638Z,42.21
2023-01-29T14:25:08.302Z,42.09
2023-01-29T14:27:25.396Z,42.00
2023-01-29T14:29:39.446Z,42.06
2023-01-29T14:31:46.620Z,41.98
2023-01-29T14:33:51.889Z,41.91
2023-01-29T14:35:58.970Z,42.15
2023-01-29T14:38:08.116Z,42.15
2023-01-29T14:40:23.563Z,42.10
2023-01-29T14:42:31.516Z,41.87
2023-01-29T14:45:26.321Z,42.14
2023-01-29T14:47:56.460Z,42.16
2023-01-29T14:50:03.368Z,42.06
2023-01-29T14:52:13.184Z,41.83
2023-01-29T14:54:28.014Z,41.81
2023-01-29T14:56:38.383Z,42.06
2023-01-29T14:58:48.069Z,41.86
2023-01-29T15:00:58.980Z,41.91
2023-01-29T15:03:06.612Z,41.76
2023-01-29T15:05:17.037Z,41.67
2023-01-29T15:07:30.745Z,41.81
2023-01-29T15:09:42.960Z,41.71
2023-01-29T15:11:55.407Z,41.47
2023-01-29T15:14:11.335Z,41.67
2023-01-29T15:16:23.731Z,41.55
2023-01-29T15:18:34.653Z,41.59
2023-01-29T15:20:41.273Z,41.47
2023-01-29T15:22:46.605Z,41.63
2023-01-29T15:25:07.480Z,41.51
2023-01-29T15:27:16.838Z,41.46
2023-01-29T15:29:27.558Z,41.58
2023-01-29T15:31:35.814Z,41.58
2023-01-29T15:33:41.275Z,41.27
2023-01-29T15:35:48.308Z,41.54
2023-01-29T15:38:01.581Z,41.54
2023-01-29T15:40:14.951Z,41.65
2023-01-29T15:42:23.687Z,41.78
2023-01-29T15:44:28.460Z,41.58
2023-01-29T15:46:39.019Z,41.73
2023-01-29T15:48:46.961Z,41.39
2023-01-29T15:50:56.706Z,41.77
2023-01-29T15:53:06.352Z,41.68
2023-01-29T15:55:16.173Z,41.82
2023-01-29T15:57:27.524Z,41.68
2023-01-29T15:59:35.986Z,41.49
2023-01-29T16:01:43.528Z,41.38
2023-01-29T16:03:49.120Z,41.39
2023-01-29T16:05:55.161Z,41.44
2023-01-29T16:08:00.624Z,41.45
2023-01-29T16:10:06.672Z,41.45
2023-01-29T16:12:15.745Z,41.38
2023-01-29T16:14:25.621Z,41.58
2023-01-29T16:16:31.075Z,41.70
2023-01-29T16:18:54.190Z,41.71
2023-01-29T16:21:06.665Z,41.84
2023-01-29T16:23:21.082Z,41.74
2023-01-29T16:25:26.948Z,41.75
2023-01-29T16:27:33.863Z,41.63
2023-01-29T16:29:39.063Z,41.75
2023-01-29T16:31:46.669Z,41.87
2023-01-29T16:33:54.113Z,41.82
2023-01-29T16:35:59.334Z,41.88
2023-01-29T16:38:07.888Z,41.84
2023-01-29T16:40:19.385Z,41.74
2023-01-29T16:42:32.341Z,41.58
2023-01-29T16:44:38.987Z,41.84
2023-01-29T16:46:49.235Z,41.58
2023-01-29T16:48:57.095Z,41.42
2023-01-29T16:51:08.168Z,41.71
2023-01-29T16:53:16.024Z,41.45
2023-01-29T16:55:25.780Z,41.62
2023-01-29T16:57:35.550Z,41.58
2023-01-29T16:59:42.975Z,41.84
2023-01-29T17:01:48.363Z,41.97
2023-01-29T17:04:03.496Z,41.71
2023-01-29T17:06:12.843Z,41.86
2023-01-29T17:08:24.091Z,41.86
2023-01-29T17:10:31.021Z,42.10
2023-01-29T17:12:38.875Z,41.85
2023-01-29T17:14:56.282Z,41.99
2023-01-29T17:17:07.020Z,41.93
2023-01-29T17:19:21.739Z,41.64
2023-01-29T17:21:26.770Z,41.86
2023-01-29T17:23:31.472Z,41.77
2023-01-29T17:25:36.121Z,41.73
2023-01-29T17:27:44.337Z,41.64
2023-01-29T17:29:49.100Z,41.64
2023-01-29T17:31:55.025Z,41.99
2023-01-29T17:34:00.536Z,41.81
2023-01-29T17:36:08.412Z,41.93
2023-01-29T17:38:24.339Z,42.06
2023-01-29T17:40:38.605Z,41.91
2023-01-29T17:42:43.388Z,42.00
2023-01-29T17:44:48.070Z,42.09
2023-01-29T17:46:52.926Z,41.94
2023-01-29T17:48:57.689Z,42.15
2023-01-29T17:51:05.742Z,42.21
2023-01-29T17:53:13.108Z,42.33
2023-01-29T17:55:18.298Z,42.26
2023-01-29T17:57:23.184Z,42.21
2023-01-29T17:59:31.303Z,42.24
2023-01-29T18:01:36.040Z,42.16
2023-01-29T18:03:41.323Z,42.51
2023-01-29T18:05:47.921Z,42.68
2023-01-29T18:07:54.806Z,42.58
2023-01-29T18:10:02.135Z,42.28
2023-01-29T18:12:06.915Z,42.43
2023-01-29T18:14:14.390Z,42.54
2023-01-29T18:16:22.033Z,42.55
2023-01-29T18:18:28.145Z,42.45
2023-01-29T18:20:36.821Z,42.48
2023-01-29T18:22:41.524Z,42.53
2023-01-29T18:24:46.241Z,42.46
2023-01-29T18:26:53.998Z,42.49
2023-01-29T18:28:59.208Z,42.62
2023-01-29T18:31:04.528Z,42.57
2023-01-29T18:33:09.327Z,42.51
2023-01-29T18:35:17.610Z,42.81
2023-01-29T18:37:22.854Z,42.99
2023-01-29T18:39:27.629Z,42.79
2023-01-29T18:41:32.323Z,42.88
2023-01-29T18:43:40.102Z,42.71
2023-01-29T18:45:45.336Z,43.04
2023-01-29T18:47:50.098Z,43.01
2023-01-29T18:49:55.286Z,43.30
2023-01-29T18:52:00.065Z,43.27
2023-01-29T18:54:04.773Z,43.41
2023-01-29T18:56:10.509Z,43.06
2023-01-29T18:58:25.991Z,43.34
2023-01-29T19:00:36.599Z,43.12
2023-01-29T19:02:43.206Z,43.20
2023-01-29T19:04:48.376Z,43.48
2023-01-29T19:06:53.036Z,43.42
2023-01-29T19:08:57.817Z,43.42
2023-01-29T19:11:05.614Z,43.55
2023-01-29T19:13:11.162Z,43.67
2023-01-29T19:15:16.436Z,43.51
2023-01-29T19:17:24.542Z,43.55
2023-01-29T19:19:29.870Z,43.63
2023-01-29T19:21:36.857Z,43.81
2023-01-29T19:23:42.253Z,43.71
2023-01-29T19:25:47.141Z,43.67
2023-01-29T19:27:52.173Z,43.66
2023-01-29T19:29:56.908Z,43.54
2023-01-29T19:32:01.583Z,43.71
2023-01-29T19:34:09.321Z,43.46
2023-01-29T19:36:14.178Z,43.84
2023-01-29T19:38:21.278Z,43.57
2023-01-29T19:40:26.493Z,43.66
2023-01-29T19:42:31.465Z,43.75
2023-01-29T19:44:36.165Z,43.63
2023-01-29T19:46:41.373Z,43.62
2023-01-29T19:48:46.152Z,43.77
2023-01-29T19:50:58.103Z,43.98
2023-01-29T19:53:02.841Z,43.89
2023-01-29T19:55:09.553Z,43.89
2023-01-29T19:57:14.271Z,44.08
2023-01-29T19:59:31.520Z,44.03
2023-01-29T20:01:36.358Z,44.11
2023-01-29T20:03:42.005Z,44.34
2023-01-29T20:05:46.739Z,44.07
2023-01-29T20:07:54.322Z,44.12
2023-01-29T20:09:58.989Z,44.20
2023-01-29T20:12:03.743Z,44.20
2023-01-29T20:14:08.454Z,44.13
2023-01-29T20:16:13.487Z,44.07
2023-01-29T20:18:18.769Z,44.22
2023-01-29T20:20:23.804Z,44.26
2023-01-29T20:22:32.540Z,44.42
2023-01-29T20:24:42.442Z,44.36
2023-01-29T20:26:47.479Z,44.27
2023-01-29T20:28:52.440Z,44.05
2023-01-29T20:30:59.203Z,44.10
2023-01-29T20:33:05.191Z,44.48
2023-01-29T20:35:11.693Z,44.35
2023-01-29T20:37:16.501Z,44.71
2023-01-29T20:39:21.289Z,44.52
2023-01-29T20:41:28.908Z,44.71
2023-01-29T20:43:33.635Z,44.85
2023-01-29T20:45:38.381Z,44.67
2023-01-29T20:47:43.076Z,44.69
2023-01-29T20:49:47.914Z,44.80
2023-01-29T20:51:52.657Z,44.80
2023-01-29T20:53:57.377Z,44.98
2023-01-29T20:56:04.281Z,45.00
2023-01-29T20:58:12.001Z,45.12
2023-01-29T21:00:18.214Z,45.10
2023-01-29T21:02:23.556Z,44.93
2023-01-29T21:04:28.429Z,44.96
2023-01-29T21:06:33.491Z,44.93
2023-01-29T21:08:38.447Z,44.68
2023-01-29T21:10:45.156Z,44.66
2023-01-29T21:12:49.778Z,44.43
2023-01-29T21:14:57.071Z,44.22
2023-01-29T21:17:01.982Z,44.18
2023-01-29T21:19:06.709Z,44.46
2023-01-29T21:21:11.386Z,44.38
2023-01-29T21:23:16.069Z,44.50
2023-01-29T21:25:21.493Z,44.46
2023-01-29T21:27:27.672Z,44.40
2023-01-29T21:29:32.511Z,44.72
2023-01-29T21:31:40.265Z,44.67
2023-01-29T21:33:45.351Z,44.46
2023-01-29T21:35:59.418Z,44.65
2023-01-29T21:38:04.090Z,44.59
2023-01-29T21:40:10.560Z,44.61
2023-01-29T21:42:27.733Z,44.67
2023-01-29T21:44:33.609Z,44.75
2023-01-29T21:46:41.175Z,44.42
2023-01-29T21:48:45.965Z,44.62
2023-01-29T21:50:51.199Z,44.58
2023-01-29T21:52:55.902Z,44.86
2023-01-29T21:55:00.676Z,44.74
2023-01-29T21:57:07.572Z,44.76
2023-01-29T21:59:12.387Z,44.37
2023-01-29T22:01:37.617Z,44.41
2023-01-29T22:03:47.095Z,44.55
2023-01-29T22:05:53.444Z,44.55
2023-01-29T22:07:58.713Z,44.37
2023-01-29T22:10:03.662Z,44.44
2023-01-29T22:12:11.039Z,44.53
2023-01-29T22:14:18.303Z,44.56
2023-01-29T22:16:23.112Z,44.41
2023-01-29T22:18:27.860Z,44.70
2023-01-29T22:20:36.758Z,44.40
2023-01-29T22:22:41.616Z,44.69
2023-01-29T22:24:46.751Z,44.69
2023-01-29T22:26:51.452Z,44.63
2023-01-29T22:28:56.232Z,44.71
2023-01-29T22:31:04.280Z,44.98
2023-01-29T22:33:10.537Z,45.11
2023-01-29T22:35:15.195Z,45.20
2023-01-29T22:37:22.463Z,45.19
2023-01-29T22:39:27.300Z,45.55
2023-01-29T22:41:33.748Z,45.48
2023-01-29T22:43:38.623Z,45.50
2023-01-29T22:45:43.321Z,45.62
2023-01-29T22:47:48.172Z,45.69
2023-01-29T22:49:52.858Z,45.63
2023-01-29T22:52:09.840Z,45.74
2023-01-29T22:54:17.907Z,45.74
2023-01-29T22:56:25.408Z,45.61
2023-01-29T22:58:30.368Z,45.47
2023-01-29T23:00:35.088Z,45.70
2023-01-29T23:02:39.891Z,45.71
2023-01-29T23:04:44.769Z,45.79
2023-01-29T23:06:49.449Z,45.77
2023-01-29T23:08:54.475Z,45.49
2023-01-29T23:11:14.367Z,45.48
2023-01-29T23:13:19.593Z,45.71
2023-01-29T23:15:24.275Z,45.52
2023-01-29T23:17:29.033Z,45.47
2023-01-29T23:19:33.664Z,45.67
2023-01-29T23:21:38.440Z,45.54
2023-01-29T23:23:45.040Z,45.75
2023-01-29T23:26:02.143Z,45.64
2023-01-29T23:28:09.442Z,45.38
2023-01-29T23:30:15.060Z,45.40
2023-01-29T23:32:21.766Z,45.53
2023-01-29T23:34:26.473Z,45.52
2023-01-29T23:36:31.242Z,45.58
2023-01-29T23:38:36.487Z,45.63
2023-01-29T23:40:41.131Z,45.87
2023-01-29T23:42:45.799Z,46.00
2023-01-29T23:44:53.020Z,46.18
2023-01-29T23:46:58.346Z,46.09
2023-01-29T23:49:03.177Z,46.01
2023-01-29T23:51:08.152Z,46.25
2023-01-29T23:53:13.029Z,46.14
2023-01-29T23:55:18.181Z,45.88
2023-01-29T23:57:22.810Z,46.13
2023-01-29T23:59:29.873Z,46.20
